Time;durP1;ratioP1;P1;durP2;ratioP2;P2;SDS_P1;SDS_P2;PMS_P1;PMS_P2;Temp;Humidity;BMP_temperature;BMP_pressure;BME280_temperature;BME280_humidity;BME280_pressure;Samples;Min_cycle;Max_cycle;Signal;HPM_P1;HPM_P2
2021/07/09 00:01:33;;;;;;;4.95;4.40;;;;;;;16.85;95.71;93810.98;1756784;77;21008;-78
2021/07/09 00:06:29;;;;;;;5.20;4.22;;;;;;;16.85;95.65;93806.06;1782603;78;21121;-76
2021/07/09 00:08:56;;;;;;;5.58;3.95;;;;;;;16.86;95.82;93807.63;1823589;77;21128;-80
2021/07/09 00:11:22;;;;;;;7.97;4.00;;;;;;;16.85;96.00;93804.69;1819742;76;20994;-77
2021/07/09 00:13:52;;;;;;;15.63;4.97;;;;;;;16.86;95.76;93815.88;1812122;76;21332;-77
2021/07/09 00:16:19;;;;;;;6.28;3.85;;;;;;;16.83;95.26;93808.48;1854968;76;21012;-74
2021/07/09 00:18:47;;;;;;;6.60;3.70;;;;;;;16.78;95.18;93804.27;1815296;78;21074;-74
2021/07/09 00:21:14;;;;;;;4.42;4.03;;;;;;;16.73;95.43;93804.15;1813689;76;21023;-76
2021/07/09 00:23:42;;;;;;;4.97;4.50;;;;;;;16.68;96.03;93796.99;1813830;76;21069;-77
2021/07/09 00:26:09;;;;;;;6.83;4.28;;;;;;;16.70;96.46;93798.13;1774440;78;20991;-80
2021/07/09 00:28:35;;;;;;;4.60;4.20;;;;;;;16.71;96.69;93796.15;1833423;77;21120;-74
2021/07/09 00:31:01;;;;;;;4.85;4.12;;;;;;;16.72;96.31;93793.57;1819464;77;21022;-78
2021/07/09 00:33:28;;;;;;;7.90;4.45;;;;;;;16.73;96.19;93804.72;1818198;76;21794;-79
2021/07/09 00:35:55;;;;;;;6.85;4.20;;;;;;;16.73;96.27;93804.72;1813430;77;21022;-80
2021/07/09 00:38:22;;;;;;;4.87;4.42;;;;;;;16.65;96.68;93804.09;1765168;79;21515;-76
2021/07/09 00:40:49;;;;;;;6.90;4.28;;;;;;;16.56;97.12;93797.05;1807959;78;21062;-76
2021/07/09 00:43:15;;;;;;;5.05;3.72;;;;;;;16.50;97.39;93805.59;1776621;80;21034;-77
2021/07/09 00:45:41;;;;;;;4.72;4.20;;;;;;;16.40;97.89;93792.28;1780533;79;22319;-76
2021/07/09 00:48:11;;;;;;;6.15;4.05;;;;;;;16.36;98.22;93789.41;1813417;78;21200;-81
2021/07/09 00:50:37;;;;;;;6.50;4.62;;;;;;;16.38;98.04;93791.14;1794373;79;21034;-83
2021/07/09 00:53:06;;;;;;;7.35;4.67;;;;;;;16.37;97.88;93782.14;1793142;79;21630;-77
2021/07/09 00:55:34;;;;;;;10.13;4.40;;;;;;;16.38;97.59;93785.05;1854200;76;21057;-80
2021/07/09 00:58:01;;;;;;;5.90;4.22;;;;;;;16.34;97.38;93785.73;1789295;80;22024;-80
2021/07/09 01:00:28;;;;;;;6.55;4.08;;;;;;;16.31;97.64;93784.42;1815246;78;21041;-76
2021/07/09 01:02:55;;;;;;;8.40;3.87;;;;;;;16.30;97.82;93790.52;1800096;78;21096;-79
2021/07/09 01:05:21;;;;;;;5.53;4.30;;;;;;;16.31;98.14;93790.69;1798885;78;21319;-78
2021/07/09 01:07:50;;;;;;;6.05;4.55;;;;;;;16.24;98.50;93786.10;1812105;77;21671;-78
2021/07/09 01:10:19;;;;;;;9.28;4.37;;;;;;;16.15;98.87;93791.98;1810374;78;21067;-80
2021/07/09 01:12:45;;;;;;;5.55;4.33;;;;;;;16.06;99.74;93788.44;1783367;79;21001;-77
2021/07/09 01:15:14;;;;;;;4.87;4.47;;;;;;;16.11;100.00;93785.80;1775040;80;22116;-79
2021/07/09 01:17:43;;;;;;;5.90;4.62;;;;;;;16.18;99.83;93785.06;1791755;79;20938;-76
2021/07/09 01:20:11;;;;;;;5.75;4.33;;;;;;;16.23;99.39;93790.05;1798852;79;21046;-75
2021/07/09 01:22:42;;;;;;;9.13;4.37;;;;;;;16.26;98.91;93785.70;1784191;79;21091;-78
2021/07/09 01:25:16;;;;;;;10.45;4.15;;;;;;;16.32;98.48;93784.59;1799676;79;21592;-78
2021/07/09 01:27:45;;;;;;;7.55;4.72;;;;;;;16.36;98.02;93781.17;1776552;79;21071;-76
2021/07/09 01:30:15;;;;;;;6.67;4.45;;;;;;;16.33;97.76;93782.05;1799440;78;21236;-80
2021/07/09 01:32:41;;;;;;;4.92;4.28;;;;;;;16.29;97.67;93784.86;1771782;80;21029;-75
2021/07/09 01:35:08;;;;;;;4.47;4.08;;;;;;;16.26;97.28;93787.07;1792976;79;21463;-75
2021/07/09 01:37:35;;;;;;;5.15;4.30;;;;;;;16.22;97.15;93780.28;1794713;79;21011;-77
2021/07/09 01:40:10;;;;;;;11.18;4.28;;;;;;;16.17;97.16;93775.87;1820069;78;21000;-78
2021/07/09 01:42:37;;;;;;;5.97;4.70;;;;;;;16.12;97.15;93779.11;1850861;76;21041;-77
2021/07/09 01:45:04;;;;;;;4.90;4.12;;;;;;;16.04;97.44;93781.22;1852987;76;21018;-78
2021/07/09 01:47:31;;;;;;;5.25;4.47;;;;;;;15.99;97.71;93783.09;1834679;78;21118;-77
2021/07/09 01:50:00;;;;;;;5.25;4.25;;;;;;;15.94;98.11;93782.95;1867855;76;21049;-80
2021/07/09 01:52:27;;;;;;;9.38;5.15;;;;;;;15.94;98.02;93783.55;1856997;77;21002;-78
2021/07/09 01:54:55;;;;;;;5.62;3.98;;;;;;;15.90;97.61;93782.84;1823107;77;21596;-76
2021/07/09 01:57:21;;;;;;;6.85;4.45;;;;;;;15.86;97.75;93778.80;1845032;76;21022;-77
2021/07/09 01:59:48;;;;;;;6.42;4.95;;;;;;;15.87;97.74;93772.72;1864252;76;21066;-76
2021/07/09 02:02:14;;;;;;;4.40;4.00;;;;;;;15.87;97.55;93772.72;1853854;77;21216;-80
2021/07/09 02:07:09;;;;;;;5.85;4.58;;;;;;;15.81;97.77;93774.41;1868120;76;21022;-79
2021/07/09 02:09:36;;;;;;;4.60;4.20;;;;;;;15.77;97.85;93778.59;1820571;76;21488;-78
2021/07/09 02:12:04;;;;;;;5.47;4.20;;;;;;;15.71;98.56;93773.40;1836860;76;21466;-80
2021/07/09 02:14:31;;;;;;;7.00;4.72;;;;;;;15.60;99.36;93771.41;1859079;76;21083;-77
2021/07/09 02:16:57;;;;;;;6.05;4.80;;;;;;;15.54;99.92;93766.42;1810506;78;21044;-80
2021/07/09 02:19:24;;;;;;;6.92;4.85;;;;;;;15.55;100.00;93775.41;1810979;79;21018;-78
2021/07/09 02:21:50;;;;;;;5.53;4.80;;;;;;;15.59;100.00;93772.61;1801315;78;20999;-79
2021/07/09 02:24:17;;;;;;;6.70;5.10;;;;;;;15.61;100.00;93767.47;1754027;78;21516;-77
2021/07/09 02:26:43;;;;;;;6.83;4.40;;;;;;;15.65;100.00;93775.06;1810927;78;20990;-76
2021/07/09 02:29:09;;;;;;;6.00;4.70;;;;;;;15.69;100.00;93771.69;1809143;79;21073;-79
2021/07/09 02:31:37;;;;;;;6.22;4.30;;;;;;;15.73;100.00;93771.80;1873036;76;20971;-77
2021/07/09 02:34:04;;;;;;;5.42;4.50;;;;;;;15.78;100.00;93771.30;1806966;76;21077;-81
2021/07/09 02:36:31;;;;;;;6.03;4.10;;;;;;;15.83;99.82;93770.64;1817248;77;21478;-79
2021/07/09 02:38:57;;;;;;;6.50;4.60;;;;;;;15.81;99.52;93765.59;1823546;77;21115;-80
2021/07/09 02:41:24;;;;;;;7.40;4.65;;;;;;;15.75;99.87;93769.39;1803410;79;21496;-82
2021/07/09 02:43:51;;;;;;;8.28;5.17;;;;;;;15.76;100.00;93773.70;1777318;80;21046;-77
2021/07/09 02:49:49;;;;;;;5.70;4.45;;;;;;;15.74;99.41;93768.45;1821862;78;21039;-77
2021/07/09 02:52:16;;;;;;;5.25;4.50;;;;;;;15.62;99.55;93769.04;1791175;78;21072;-79
2021/07/09 02:54:43;;;;;;;5.58;4.90;;;;;;;15.55;99.82;93772.67;1777843;78;21035;-79
2021/07/09 02:57:10;;;;;;;6.17;4.20;;;;;;;15.49;100.00;93779.81;1792309;79;21062;-77
2021/07/09 02:59:36;;;;;;;5.40;4.47;;;;;;;15.48;100.00;93776.91;1794679;79;21034;-79
2021/07/09 03:02:03;;;;;;;5.92;4.72;;;;;;;15.51;100.00;93778.81;1798800;78;21551;-78
2021/07/09 03:04:30;;;;;;;7.00;5.05;;;;;;;15.53;99.98;93769.56;1791139;79;21028;-80
2021/07/09 03:06:58;;;;;;;5.60;3.75;;;;;;;15.54;99.98;93769.77;1821075;77;21000;-78
2021/07/09 03:09:25;;;;;;;4.60;4.17;;;;;;;15.60;100.00;93778.27;1825180;77;21007;-80
2021/07/09 03:11:53;;;;;;;5.10;4.05;;;;;;;15.63;99.35;93771.35;1802646;78;21746;-77
2021/07/09 03:14:19;;;;;;;4.95;4.40;;;;;;;15.55;99.26;93765.83;1800038;79;21127;-77
2021/07/09 03:16:47;;;;;;;6.67;4.28;;;;;;;15.46;99.83;93765.60;1794798;80;21015;-78
2021/07/09 03:19:13;;;;;;;4.58;4.17;;;;;;;15.39;100.00;93770.59;1839376;76;21003;-77
2021/07/09 03:21:40;;;;;;;5.47;4.28;;;;;;;15.35;100.00;93767.75;1878993;76;21061;-80
2021/07/09 03:24:08;;;;;;;6.90;4.42;;;;;;;15.32;100.00;93778.16;1847696;76;21377;-79
2021/07/09 03:26:34;;;;;;;5.28;4.78;;;;;;;15.33;100.00;93775.59;1817450;78;21234;-79
2021/07/09 03:29:01;;;;;;;6.25;5.12;;;;;;;15.34;100.00;93772.42;1823636;78;21037;-79
2021/07/09 03:31:31;;;;;;;4.65;4.20;;;;;;;15.38;100.00;93772.37;1832454;76;21453;-77
2021/07/09 03:33:57;;;;;;;5.92;4.53;;;;;;;15.41;100.00;93771.54;1831164;76;21014;-78
2021/07/09 03:36:25;;;;;;;6.12;4.70;;;;;;;15.43;100.00;93769.17;1797001;79;20992;-77
2021/07/09 03:38:55;;;;;;;6.65;4.72;;;;;;;15.45;99.95;93764.03;1794643;79;21743;-80
2021/07/09 03:41:24;;;;;;;6.42;4.67;;;;;;;15.48;99.78;93765.34;1860732;76;20960;-79
2021/07/09 03:43:51;;;;;;;8.75;4.97;;;;;;;15.52;99.72;93768.02;1808946;78;21040;-78
2021/07/09 03:46:17;;;;;;;6.37;5.40;;;;;;;15.53;99.85;93767.63;1780727;79;21506;-80
2021/07/09 03:48:45;;;;;;;7.05;5.28;;;;;;;15.58;99.94;93771.84;1794002;79;21062;-76
2021/07/09 03:51:11;;;;;;;5.42;4.87;;;;;;;15.59;99.70;93773.98;1794650;79;21109;-78
2021/07/09 03:53:39;;;;;;;5.10;4.60;;;;;;;15.59;99.83;93770.64;1754464;79;21833;-78
2021/07/09 03:56:05;;;;;;;7.15;4.83;;;;;;;15.62;99.91;93772.55;1807480;79;20993;-79
2021/07/09 03:58:32;;;;;;;4.28;3.87;;;;;;;15.67;99.82;93770.72;1769591;78;21596;-78
2021/07/09 04:00:59;;;;;;;9.35;4.55;;;;;;;15.75;99.53;93770.00;1804539;77;21029;-79
2021/07/09 04:03:26;;;;;;;6.85;4.97;;;;;;;15.80;99.18;93766.78;1815102;78;21512;-77
2021/07/09 04:05:52;;;;;;;4.40;4.05;;;;;;;15.84;99.26;93765.35;1813053;77;20951;-78
2021/07/09 04:08:18;;;;;;;6.97;5.17;;;;;;;15.95;99.54;93764.55;1810737;79;21521;-78
2021/07/09 04:10:46;;;;;;;5.70;4.30;;;;;;;16.08;99.55;93763.33;1808883;79;21329;-78
2021/07/09 04:13:13;;;;;;;7.58;5.37;;;;;;;16.20;99.24;93764.05;1809874;79;21532;-80
2021/07/09 04:15:40;;;;;;;7.28;5.87;;;;;;;16.36;99.04;93761.97;1809620;79;21462;-78
2021/07/09 04:18:08;;;;;;;7.28;6.53;;;;;;;16.54;98.59;93763.74;1809908;79;21015;-79
2021/07/09 04:20:37;;;;;;;7.97;6.37;;;;;;;16.75;98.07;93759.20;1809106;79;21019;-77
2021/07/09 04:23:04;;;;;;;7.53;6.72;;;;;;;16.93;96.88;93760.78;1809113;79;21022;-79
2021/07/09 04:25:31;;;;;;;9.23;6.25;;;;;;;17.05;95.98;93762.85;1807411;79;21760;-76
2021/07/09 04:27:59;;;;;;;10.43;5.22;;;;;;;17.20;95.75;93755.05;1808805;78;21030;-78
2021/07/09 04:30:25;;;;;;;8.05;6.55;;;;;;;17.49;95.38;93756.51;1812164;79;20995;-76
2021/07/09 04:32:52;;;;;;;6.62;5.92;;;;;;;17.89;94.46;93751.55;1812042;77;21188;-78
2021/07/09 04:35:18;;;;;;;8.60;6.33;;;;;;;18.22;92.58;93746.56;1808328;79;21018;-76
2021/07/09 04:37:45;;;;;;;7.65;6.20;;;;;;;18.42;90.86;93748.53;1807919;78;21389;-78
2021/07/09 04:40:44;;;;;;;8.53;7.17;;;;;;;18.54;89.93;93740.92;1830569;77;21016;-78
2021/07/09 04:43:40;;;;;;;10.80;6.90;;;;;;;18.65;89.14;93749.64;1804465;78;21034;-78
2021/07/09 04:46:07;;;;;;;6.78;6.00;;;;;;;18.79;88.01;93745.70;1791388;79;21037;-77
2021/07/09 04:48:34;;;;;;;6.72;5.33;;;;;;;18.89;86.49;93739.71;1792603;79;21035;-76
2021/07/09 04:51:04;;;;;;;7.45;5.45;;;;;;;18.94;86.20;93739.16;1793468;79;21727;-75
2021/07/09 04:53:30;;;;;;;6.40;5.22;;;;;;;19.03;86.29;93737.11;1803099;79;21083;-76
2021/07/09 04:55:57;;;;;;;15.90;8.60;;;;;;;19.12;86.52;93730.34;1820780;77;21279;-78
2021/07/09 04:58:24;;;;;;;10.23;7.53;;;;;;;19.21;86.51;93739.30;1829271;77;21064;-79
2021/07/09 05:00:50;;;;;;;10.55;5.97;;;;;;;19.28;86.36;93726.67;1828625;77;21010;-75
2021/07/09 05:03:16;;;;;;;6.25;5.17;;;;;;;19.33;86.82;93735.76;1789333;77;21045;-77
2021/07/09 05:05:44;;;;;;;7.70;4.45;;;;;;;19.43;86.78;93733.88;1798001;77;21810;-80
2021/07/09 05:08:10;;;;;;;4.85;4.37;;;;;;;19.56;86.65;93731.88;1818651;77;21038;-78
2021/07/09 05:10:37;;;;;;;9.60;5.00;;;;;;;19.74;86.66;93732.66;1772806;78;21050;-77
2021/07/09 05:13:05;;;;;;;5.65;5.05;;;;;;;19.82;85.11;93735.34;1779596;77;21598;-78
2021/07/09 05:15:33;;;;;;;5.30;4.90;;;;;;;19.89;84.72;93733.72;1820676;77;21114;-76
2021/07/09 05:17:59;;;;;;;5.17;4.60;;;;;;;20.09;83.77;93733.44;1820632;77;21105;-78
2021/07/09 05:20:27;;;;;;;7.45;4.83;;;;;;;20.44;83.99;93729.22;1806960;77;21030;-77
2021/07/09 05:22:53;;;;;;;5.50;4.72;;;;;;;20.87;82.99;93728.39;1808446;78;21116;-78
2021/07/09 05:25:20;;;;;;;9.13;5.95;;;;;;;21.21;80.98;93722.54;1791721;77;21066;-77
2021/07/09 05:27:48;;;;;;;7.03;5.83;;;;;;;21.48;80.30;93725.43;1783594;79;21069;-79
2021/07/09 05:30:19;;;;;;;5.33;4.85;;;;;;;21.85;79.58;93724.08;1820425;77;21380;-79
2021/07/09 05:32:46;;;;;;;8.53;5.22;;;;;;;22.37;76.22;93724.26;1821769;77;21101;-77
2021/07/09 05:35:13;;;;;;;5.40;4.90;;;;;;;22.74;74.07;93721.56;1829624;76;21193;-78
2021/07/09 05:37:40;;;;;;;5.40;4.85;;;;;;;23.23;73.77;93721.88;1831592;76;21051;-79
2021/07/09 05:40:08;;;;;;;7.28;5.70;;;;;;;23.83;71.18;93714.63;1844754;76;21025;-76
2021/07/09 05:42:35;;;;;;;5.10;4.60;;;;;;;24.32;69.70;93717.48;1845685;76;21291;-79
2021/07/09 05:45:05;;;;;;;6.50;4.72;;;;;;;24.44;64.86;93719.24;1829097;76;21061;-77
2021/07/09 05:47:32;;;;;;;6.22;5.20;;;;;;;24.41;64.98;93718.05;1810397;77;21094;-78
2021/07/09 05:49:59;;;;;;;5.17;4.72;;;;;;;24.28;64.58;93703.01;1808308;77;21049;-75
2021/07/09 05:52:26;;;;;;;5.47;4.87;;;;;;;24.13;64.63;93700.83;1850912;75;21081;-75
2021/07/09 05:54:55;;;;;;;6.58;5.47;;;;;;;23.95;65.08;93705.91;1820556;75;21317;-78
2021/07/09 05:57:24;;;;;;;6.05;5.42;;;;;;;23.81;66.02;93697.69;1783930;77;21058;-79
2021/07/09 05:59:53;;;;;;;5.80;4.55;;;;;;;23.85;66.36;93694.73;1775145;76;21035;-80
2021/07/09 06:02:20;;;;;;;7.12;4.62;;;;;;;24.08;66.13;93699.48;1806525;76;20997;-83
2021/07/09 06:04:46;;;;;;;6.00;5.40;;;;;;;24.43;65.04;93698.27;1816597;77;21025;-79
2021/07/09 06:07:13;;;;;;;5.78;5.20;;;;;;;24.86;63.51;93699.36;1810145;77;21081;-78
2021/07/09 06:09:40;;;;;;;5.87;5.05;;;;;;;25.30;62.12;93700.72;1817758;77;21377;-77
2021/07/09 06:18:45;;;;;;;6.05;5.20;;;;;;;25.79;60.18;93706.10;1802815;77;23955;-74
2021/07/09 06:21:16;;;;;;;5.70;5.12;;;;;;;25.75;60.04;93705.52;1781269;78;21021;-78
2021/07/09 06:23:42;;;;;;;5.50;4.97;;;;;;;25.70;59.74;93697.10;1783850;79;21100;-80
2021/07/09 06:29:30;;;;;;;11.10;5.95;;;;;;;25.61;59.66;93688.23;1817099;77;21017;-79
2021/07/09 06:31:57;;;;;;;6.05;5.55;;;;;;;25.43;60.03;93680.92;1807296;77;21432;-78
2021/07/09 06:34:24;;;;;;;5.60;5.10;;;;;;;25.36;60.71;93677.16;1769826;79;21513;-78
2021/07/09 06:36:52;;;;;;;6.33;5.30;;;;;;;25.25;60.08;93674.98;1774141;78;21042;-78
2021/07/09 06:39:19;;;;;;;7.00;5.70;;;;;;;25.12;61.25;93674.52;1818963;78;21068;-77
2021/07/09 06:41:48;;;;;;;5.60;5.00;;;;;;;25.01;61.28;93681.27;1802342;77;21046;-77
2021/07/09 06:44:18;;;;;;;5.85;5.33;;;;;;;24.90;61.83;93676.32;1806846;76;21285;-81
2021/07/09 06:46:51;;;;;;;7.33;5.17;;;;;;;24.82;62.21;93676.55;1839458;75;21149;-79
2021/07/09 06:49:18;;;;;;;6.05;5.53;;;;;;;24.80;62.53;93672.11;1814780;75;21144;-81
2021/07/09 06:54:24;;;;;;;6.25;5.65;;;;;;;24.71;62.79;93664.61;1802407;78;21056;-83
2021/07/09 06:56:55;;;;;;;6.87;6.00;;;;;;;24.66;63.41;93667.45;1782366;78;21069;-83
2021/07/09 06:59:21;;;;;;;6.03;5.35;;;;;;;24.63;63.66;93667.64;1808930;77;22085;-82
2021/07/09 07:01:51;;;;;;;6.67;6.08;;;;;;;24.68;64.61;93663.58;1830363;76;21124;-82
2021/07/09 07:04:20;;;;;;;6.67;5.97;;;;;;;24.74;64.09;93654.55;1828463;76;21026;-83
2021/07/09 07:17:17;;;;;;;6.80;5.72;;;;;;;24.85;64.34;93651.32;1771704;79;21031;-81
2021/07/09 07:22:28;;;;;;;8.35;7.62;;;;;;;24.85;64.87;93636.03;1784234;78;21104;-77
2021/07/09 07:24:58;;;;;;;7.40;5.75;;;;;;;24.89;64.91;93636.59;1770410;79;21086;-77
2021/07/09 07:27:29;;;;;;;7.33;5.53;;;;;;;24.98;64.85;93632.19;1772995;78;20991;-80
2021/07/09 07:30:00;;;;;;;6.87;4.90;;;;;;;25.08;63.89;93637.13;1794450;79;21469;-79
2021/07/09 07:32:29;;;;;;;7.55;5.40;;;;;;;25.15;63.51;93632.58;1816767;77;21046;-78
2021/07/09 07:34:55;;;;;;;5.85;5.25;;;;;;;25.26;61.90;93627.80;1774629;79;21608;-78
2021/07/09 07:37:24;;;;;;;12.37;6.37;;;;;;;25.34;61.01;93621.96;1785356;79;21057;-80
2021/07/09 07:40:42;;;;;;;8.65;6.17;;;;;;;25.42;62.32;93627.25;1795442;78;20998;-79
2021/07/09 07:43:13;;;;;;;7.60;5.72;;;;;;;25.58;62.29;93621.78;1846381;76;21094;-79
2021/07/09 07:45:44;;;;;;;;;;;;;;;25.79;60.78;93612.05;1858956;76;21139;-77
2021/07/09 07:48:45;;;;;;;5.87;5.28;;;;;;;25.89;59.86;93612.04;1859404;76;20175;-76
2021/07/09 07:51:15;;;;;;;7.90;5.78;;;;;;;25.97;59.93;93612.38;1782069;76;20967;-77
2021/07/09 07:53:41;;;;;;;7.33;5.87;;;;;;;26.06;59.77;93607.39;1792266;77;21595;-77
2021/07/09 07:56:16;;;;;;;6.67;5.25;;;;;;;26.10;59.14;93600.21;1788685;77;21054;-80
2021/07/09 08:00:17;;;;;;;9.13;5.33;;;;;;;26.17;58.12;93601.17;1843327;75;22001;-79
2021/07/09 08:02:47;;;;;;;5.45;4.95;;;;;;;26.18;57.90;93600.54;1805840;77;21472;-82
2021/07/09 08:05:17;;;;;;;5.17;4.67;;;;;;;26.18;54.62;93592.18;1851118;75;20957;-78
2021/07/09 08:07:44;;;;;;;4.95;4.28;;;;;;;26.15;56.27;93600.28;1835509;75;21556;-77
2021/07/09 08:10:12;;;;;;;4.83;4.42;;;;;;;26.19;56.87;93595.88;1801999;78;21348;-81
2021/07/09 08:12:42;;;;;;;5.10;4.50;;;;;;;26.24;57.08;93586.80;1809424;75;21001;-78
2021/07/09 08:15:12;;;;;;;6.10;4.17;;;;;;;26.30;56.06;93586.23;1832589;76;21036;-78
2021/07/09 08:17:39;;;;;;;5.12;4.42;;;;;;;26.34;56.17;93588.17;1866635;76;21058;-80
2021/07/09 08:20:09;;;;;;;5.20;4.70;;;;;;;26.35;55.33;93587.54;1802527;78;20971;-79
2021/07/09 08:22:40;;;;;;;4.37;3.98;;;;;;;26.35;55.39;93585.52;1795348;78;21558;-81
2021/07/09 08:29:58;;;;;;;5.37;4.87;;;;;;;26.57;54.36;93583.58;1842118;76;22685;-79
2021/07/09 08:32:27;;;;;;;8.18;6.87;;;;;;;26.57;54.49;93578.00;1774567;78;21109;-80
2021/07/09 08:34:58;;;;;;;7.12;6.53;;;;;;;26.63;54.91;93580.21;1799086;78;21165;-81
2021/07/09 08:53:56;;;;;;;6.20;5.47;;;;;;;27.40;51.83;93562.30;1770340;79;24619;-78
2021/07/09 08:56:25;;;;;;;5.10;4.60;;;;;;;27.35;51.05;93565.84;1825332;77;21093;-79
2021/07/09 08:58:51;;;;;;;4.47;4.08;;;;;;;27.27;50.82;93561.97;1797544;77;22355;-78
2021/07/09 09:01:25;;;;;;;6.60;4.25;;;;;;;27.18;51.19;93564.98;1760455;78;21706;-78
2021/07/09 09:04:06;;;;;;;4.35;3.95;;;;;;;27.11;51.54;93561.39;1789469;78;21069;-78
2021/07/09 09:06:32;;;;;;;6.97;5.45;;;;;;;27.12;50.38;93562.18;1741954;80;21508;-79
2021/07/09 09:09:04;;;;;;;8.15;7.20;;;;;;;27.10;51.99;93558.45;1699827;81;21099;-79
2021/07/09 09:11:33;;;;;;;7.42;6.70;;;;;;;27.01;51.97;93555.87;1744515;81;22195;-79
2021/07/09 09:14:00;;;;;;;10.95;6.15;;;;;;;26.78;52.06;93553.57;1779066;79;20997;-77
2021/07/09 09:16:29;;;;;;;6.85;6.25;;;;;;;26.64;52.84;93551.69;1758720;77;21051;-76
2021/07/09 09:19:01;;;;;;;6.10;4.97;;;;;;;26.58;53.62;93553.66;1788353;78;21547;-77
2021/07/09 09:21:29;;;;;;;9.18;6.12;;;;;;;26.59;54.75;93547.61;1737797;81;21010;-78
2021/07/09 09:24:09;;;;;;;8.70;6.47;;;;;;;26.64;55.65;93548.27;1806457;77;21072;-80
2021/07/09 09:26:59;;;;;;;5.37;4.87;;;;;;;26.56;55.34;93545.05;1788376;77;20993;-78
2021/07/09 09:29:35;;;;;;;6.75;6.08;;;;;;;26.47;55.30;93538.24;1768869;79;21038;-80
2021/07/09 09:32:06;;;;;;;5.95;4.62;;;;;;;26.46;55.60;93542.30;1795259;78;21540;-80
2021/07/09 09:34:49;;;;;;;5.45;4.65;;;;;;;26.44;56.08;93539.20;1786860;78;21053;-80
2021/07/09 09:37:23;;;;;;;5.33;4.40;;;;;;;26.41;56.07;93534.00;1777385;79;21068;-78
2021/07/09 09:42:54;;;;;;;8.10;4.70;;;;;;;26.31;56.71;93537.59;1767323;80;21017;-77
2021/07/09 09:45:34;;;;;;;5.37;4.10;;;;;;;26.22;56.83;93541.95;1732300;80;21125;-79
2021/07/09 09:48:21;;;;;;;8.28;7.47;;;;;;;26.20;55.70;93539.52;1772803;80;21290;-79
2021/07/09 09:50:57;;;;;;;5.28;4.85;;;;;;;26.23;55.54;93535.12;1758598;81;21531;-76
2021/07/09 09:53:37;;;;;;;5.90;5.30;;;;;;;26.25;54.23;93524.86;1752990;81;20994;-78
2021/07/09 09:56:10;;;;;;;4.95;4.50;;;;;;;26.31;54.40;93528.47;1763060;81;21097;-78
2021/07/09 10:01:40;;;;;;;4.42;4.05;;;;;;;26.45;54.94;93521.23;1757681;81;21029;-79
2021/07/09 10:04:10;;;;;;;5.15;4.67;;;;;;;26.56;54.27;93524.13;1762364;80;21334;-78
2021/07/09 10:06:47;;;;;;;5.15;4.75;;;;;;;26.60;52.55;93524.03;1791562;77;20990;-80
2021/07/09 10:09:17;;;;;;;4.80;4.40;;;;;;;26.59;53.51;93523.91;1783977;79;21069;-79
2021/07/09 10:11:58;;;;;;;5.05;4.50;;;;;;;26.53;53.18;93522.33;1757830;80;21038;-80
2021/07/09 10:14:33;;;;;;;5.95;4.22;;;;;;;26.48;53.57;93527.22;1739070;81;21679;-78
2021/07/09 10:17:04;;;;;;;5.25;4.75;;;;;;;26.48;52.33;93531.40;1774627;80;21027;-79
2021/07/09 10:19:39;;;;;;;8.45;5.08;;;;;;;26.49;53.28;93523.19;1737605;81;21410;-80
2021/07/09 10:22:10;;;;;;;6.85;4.92;;;;;;;26.52;53.50;93523.59;1767352;79;21104;-80
2021/07/09 10:24:51;;;;;;;5.37;4.87;;;;;;;26.54;51.56;93521.06;1772974;79;21048;-81
2021/07/09 10:27:27;;;;;;;5.70;4.58;;;;;;;26.56;52.03;93525.53;1759819;79;21021;-80
2021/07/09 10:30:06;;;;;;;5.33;4.83;;;;;;;26.65;52.30;93515.56;1761715;79;21869;-82
2021/07/09 10:32:49;;;;;;;9.20;4.78;;;;;;;26.72;53.56;93519.92;1767894;80;21501;-80
2021/07/09 10:35:49;;;;;;;5.55;5.08;;;;;;;26.83;52.79;93518.59;1724728;81;21121;-79
2021/07/09 10:38:22;;;;;;;7.12;5.08;;;;;;;26.86;53.80;93514.19;1661218;83;21176;-81
2021/07/09 10:40:50;;;;;;;7.15;5.55;;;;;;;26.88;53.45;93518.62;1788332;78;21068;-78
2021/07/09 10:43:19;;;;;;;5.22;4.72;;;;;;;26.85;51.39;93508.48;1803059;78;22320;-83
2021/07/09 10:45:47;;;;;;;5.30;4.90;;;;;;;26.82;52.60;93508.08;1800541;78;21006;-81
2021/07/09 10:48:22;;;;;;;6.03;5.40;;;;;;;26.81;52.94;93499.55;1798260;79;21388;-78
2021/07/09 10:50:53;;;;;;;8.20;4.92;;;;;;;26.85;53.80;93499.33;1766656;80;21124;-81
2021/07/09 10:53:25;;;;;;;5.60;5.10;;;;;;;26.91;52.78;93494.55;1766391;79;21145;-81
2021/07/09 10:56:12;;;;;;;6.03;5.47;;;;;;;26.96;53.37;93497.98;1762844;79;21120;-85
2021/07/09 10:58:40;;;;;;;5.67;5.00;;;;;;;27.02;52.81;93502.22;1732565;79;21094;-81
2021/07/09 11:04:11;;;;;;;7.80;5.45;;;;;;;27.06;51.04;93499.95;1717012;81;21040;-80
2021/07/09 11:06:55;;;;;;;6.35;5.00;;;;;;;27.01;51.41;93502.09;1768995;79;21173;-82
2021/07/09 11:12:29;;;;;;;6.62;5.17;;;;;;;26.85;52.63;93485.38;1768949;79;21553;-80
2021/07/09 11:14:58;;;;;;;5.50;5.10;;;;;;;26.83;52.56;93489.31;1759699;80;21076;-82
2021/07/09 11:17:25;;;;;;;6.83;5.15;;;;;;;26.86;51.89;93484.89;1698426;80;21039;-81
2021/07/09 11:20:17;;;;;;;6.40;5.50;;;;;;;26.93;51.83;93485.06;1766455;80;21057;-83
2021/07/09 11:22:46;;;;;;;8.23;5.70;;;;;;;26.99;53.88;93484.44;1758687;79;22432;-83
2021/07/09 11:25:16;;;;;;;8.10;6.20;;;;;;;27.08;52.85;93483.45;1786267;78;21053;-82
2021/07/09 11:27:50;;;;;;;6.05;5.50;;;;;;;27.12;52.97;93484.04;1702984;81;21093;-82
2021/07/09 11:30:36;;;;;;;5.83;5.30;;;;;;;27.16;54.80;93476.19;1750462;80;21046;-80
2021/07/09 11:33:25;;;;;;;9.28;6.12;;;;;;;27.25;53.34;93478.75;1744834;78;21444;-77
2021/07/09 11:35:54;;;;;;;8.00;5.58;;;;;;;27.30;52.69;93471.02;1759783;79;21759;-81
2021/07/09 11:38:35;;;;;;;6.45;5.70;;;;;;;27.28;52.10;93472.16;1695061;83;21030;-81
2021/07/09 11:41:10;;;;;;;8.98;6.00;;;;;;;27.24;52.37;93473.67;1762056;79;21028;-81
2021/07/09 11:43:40;;;;;;;8.25;6.08;;;;;;;27.22;53.40;93476.95;1766502;79;21148;-82
2021/07/09 11:46:07;;;;;;;7.30;6.40;;;;;;;27.17;53.57;93467.18;1787948;78;21511;-83
2021/07/09 11:48:34;;;;;;;6.45;5.70;;;;;;;27.17;53.46;93471.36;1772796;79;21094;-79
2021/07/09 11:51:21;;;;;;;5.95;5.45;;;;;;;27.20;52.98;93468.97;1769574;80;21041;-82
2021/07/09 11:54:08;;;;;;;7.33;5.90;;;;;;;27.18;53.98;93470.85;1762898;79;21049;-80
2021/07/09 11:56:43;;;;;;;7.70;5.85;;;;;;;27.13;53.27;93469.45;1767236;79;20999;-78
2021/07/09 11:59:16;;;;;;;;;;;;;;;27.07;53.55;93461.77;1735764;81;21061;-84
2021/07/09 12:01:46;;;;;;;5.83;5.33;;;;;;;27.05;54.18;93457.34;1733034;81;21054;-79
2021/07/09 12:04:34;;;;;;;10.48;5.55;;;;;;;27.06;52.79;93458.09;1695004;81;21700;-80
2021/07/09 12:07:38;;;;;;;8.73;5.72;;;;;;;27.06;51.85;93452.52;1732006;81;21086;-79
2021/07/09 12:10:23;;;;;;;6.03;5.47;;;;;;;27.07;52.50;93458.22;1735354;81;21089;-76
2021/07/09 12:13:01;;;;;;;6.95;5.85;;;;;;;27.04;52.84;93450.23;1746475;79;21022;-82
2021/07/09 12:15:31;;;;;;;8.75;6.30;;;;;;;27.07;50.46;93451.24;1770988;78;21095;-83
2021/07/09 12:18:08;;;;;;;6.95;5.37;;;;;;;27.06;52.47;93466.47;1787379;79;21609;-82
2021/07/09 12:20:51;;;;;;;8.03;5.45;;;;;;;27.03;53.58;93457.70;1771981;78;21041;-81
2021/07/09 12:23:33;;;;;;;6.67;6.17;;;;;;;27.06;55.55;93446.30;1714812;78;21037;-79
2021/07/09 12:26:09;;;;;;;9.88;6.00;;;;;;;27.11;53.07;93445.58;1772687;80;21509;-81
2021/07/09 12:28:45;;;;;;;8.53;5.62;;;;;;;27.12;55.36;93442.17;1737811;81;21150;-82
2021/07/09 12:31:13;;;;;;;8.05;5.85;;;;;;;27.15;55.27;93447.37;1714377;79;21060;-85
2021/07/09 12:33:54;;;;;;;9.90;6.53;;;;;;;27.20;53.07;93443.85;1773280;79;21560;-80
2021/07/09 12:36:31;;;;;;;11.00;6.22;;;;;;;27.22;54.60;93443.46;1762001;79;21059;-80
2021/07/09 12:39:10;;;;;;;6.92;6.00;;;;;;;27.27;56.11;93439.95;1745781;80;21110;-77
2021/07/09 12:41:47;;;;;;;9.38;6.17;;;;;;;27.32;54.50;93449.59;1748529;80;21157;-84
2021/07/09 12:44:22;;;;;;;10.78;6.35;;;;;;;27.27;53.73;93448.92;1743627;80;21033;-80
2021/07/09 12:46:52;;;;;;;8.60;6.22;;;;;;;27.20;53.85;93432.69;1750684;81;20976;-78
2021/07/09 12:49:22;;;;;;;8.93;6.03;;;;;;;27.18;54.68;93442.19;1752897;81;20935;-80
2021/07/09 12:51:53;;;;;;;10.08;6.05;;;;;;;27.22;55.06;93442.70;1745647;80;21526;-78
2021/07/09 12:54:33;;;;;;;8.83;6.08;;;;;;;27.26;55.09;93433.45;1725554;80;21544;-82
2021/07/09 12:57:05;;;;;;;7.22;5.95;;;;;;;27.33;54.17;93444.13;1693248;81;21168;-83